sensor_id;sensor_type;location;lat;lon;timestamp;P1;durP1;ratioP1;P2;durP2;ratioP2
49978;SDS011;35869;50.990;6.962;2023-06-26T00:01:55;7.88;;;6.35;;
49978;SDS011;35869;50.990;6.962;2023-06-26T00:06:55;8.23;;;6.18;;
49978;SDS011;35869;50.990;6.962;2023-06-26T00:11:55;7.95;;;7.18;;
49978;SDS011;35869;50.990;6.962;2023-06-26T00:16:56;7.93;;;7.13;;
49978;SDS011;35869;50.990;6.962;2023-06-26T00:21:56;7.90;;;7.05;;
49978;SDS011;35869;50.990;6.962;2023-06-26T00:26:56;7.88;;;7.18;;
49978;SDS011;35869;50.990;6.962;2023-06-26T00:31:56;8.27;;;6.88;;
49978;SDS011;35869;50.990;6.962;2023-06-26T00:36:56;7.55;;;6.85;;
49978;SDS011;35869;50.990;6.962;2023-06-26T00:41:57;7.55;;;6.85;;
49978;SDS011;35869;50.990;6.962;2023-06-26T00:46:57;6.88;;;6.28;;
49978;SDS011;35869;50.990;6.962;2023-06-26T00:51:57;7.75;;;7.05;;
49978;SDS011;35869;50.990;6.962;2023-06-26T00:56:57;8.65;;;7.43;;
49978;SDS011;35869;50.990;6.962;2023-06-26T01:01:58;8.57;;;7.37;;
49978;SDS011;35869;50.990;6.962;2023-06-26T01:06:59;10.80;;;6.90;;
49978;SDS011;35869;50.990;6.962;2023-06-26T01:12:00;7.30;;;6.32;;
49978;SDS011;35869;50.990;6.962;2023-06-26T01:17:01;7.78;;;5.63;;
49978;SDS011;35869;50.990;6.962;2023-06-26T01:27:19;7.53;;;6.43;;
49978;SDS011;35869;50.990;6.962;2023-06-26T01:32:22;7.95;;;6.43;;
49978;SDS011;35869;50.990;6.962;2023-06-26T01:37:23;7.70;;;6.80;;
49978;SDS011;35869;50.990;6.962;2023-06-26T01:42:23;6.72;;;6.07;;
49978;SDS011;35869;50.990;6.962;2023-06-26T01:47:24;7.30;;;6.55;;
49978;SDS011;35869;50.990;6.962;2023-06-26T01:52:29;7.57;;;6.38;;
49978;SDS011;35869;50.990;6.962;2023-06-26T01:57:40;9.63;;;6.78;;
49978;SDS011;35869;50.990;6.962;2023-06-26T02:02:42;8.20;;;6.55;;
49978;SDS011;35869;50.990;6.962;2023-06-26T02:07:42;5.88;;;5.32;;
49978;SDS011;35869;50.990;6.962;2023-06-26T02:12:42;6.25;;;5.65;;
49978;SDS011;35869;50.990;6.962;2023-06-26T02:17:43;6.05;;;5.50;;
49978;SDS011;35869;50.990;6.962;2023-06-26T02:22:43;6.20;;;4.88;;
49978;SDS011;35869;50.990;6.962;2023-06-26T02:27:43;6.35;;;5.78;;
49978;SDS011;35869;50.990;6.962;2023-06-26T02:32:43;6.30;;;5.70;;
49978;SDS011;35869;50.990;6.962;2023-06-26T02:37:43;6.80;;;5.22;;
49978;SDS011;35869;50.990;6.962;2023-06-26T02:42:44;6.70;;;6.00;;
49978;SDS011;35869;50.990;6.962;2023-06-26T02:47:44;7.90;;;5.82;;
49978;SDS011;35869;50.990;6.962;2023-06-26T02:52:44;6.85;;;6.15;;
49978;SDS011;35869;50.990;6.962;2023-06-26T02:57:44;6.47;;;5.40;;
49978;SDS011;35869;50.990;6.962;2023-06-26T03:02:44;7.80;;;6.38;;
49978;SDS011;35869;50.990;6.962;2023-06-26T03:07:44;5.68;;;5.07;;
49978;SDS011;35869;50.990;6.962;2023-06-26T03:12:45;5.68;;;5.07;;
49978;SDS011;35869;50.990;6.962;2023-06-26T03:17:45;6.63;;;5.88;;
49978;SDS011;35869;50.990;6.962;2023-06-26T03:22:45;9.80;;;6.15;;
49978;SDS011;35869;50.990;6.962;2023-06-26T03:27:45;6.63;;;5.95;;
49978;SDS011;35869;50.990;6.962;2023-06-26T03:32:45;7.00;;;5.55;;
49978;SDS011;35869;50.990;6.962;2023-06-26T03:37:46;6.18;;;4.97;;
49978;SDS011;35869;50.990;6.962;2023-06-26T03:42:46;5.70;;;5.20;;
49978;SDS011;35869;50.990;6.962;2023-06-26T03:47:46;5.65;;;5.15;;
49978;SDS011;35869;50.990;6.962;2023-06-26T03:52:46;5.70;;;4.97;;
49978;SDS011;35869;50.990;6.962;2023-06-26T03:57:46;7.00;;;5.35;;
49978;SDS011;35869;50.990;6.962;2023-06-26T04:02:47;6.00;;;5.22;;
49978;SDS011;35869;50.990;6.962;2023-06-26T04:07:49;5.80;;;5.13;;
49978;SDS011;35869;50.990;6.962;2023-06-26T04:12:50;5.00;;;4.50;;
49978;SDS011;35869;50.990;6.962;2023-06-26T04:17:51;5.97;;;4.55;;
49978;SDS011;35869;50.990;6.962;2023-06-26T04:22:51;6.60;;;4.78;;
49978;SDS011;35869;50.990;6.962;2023-06-26T04:27:51;7.00;;;4.75;;
49978;SDS011;35869;50.990;6.962;2023-06-26T04:32:51;5.65;;;4.72;;
49978;SDS011;35869;50.990;6.962;2023-06-26T04:37:51;8.43;;;5.22;;
49978;SDS011;35869;50.990;6.962;2023-06-26T04:42:51;7.25;;;4.85;;
49978;SDS011;35869;50.990;6.962;2023-06-26T04:47:52;7.25;;;4.40;;
49978;SDS011;35869;50.990;6.962;2023-06-26T04:52:52;6.28;;;4.57;;
49978;SDS011;35869;50.990;6.962;2023-06-26T04:57:52;5.88;;;4.15;;
49978;SDS011;35869;50.990;6.962;2023-06-26T05:02:52;6.18;;;4.22;;
49978;SDS011;35869;50.990;6.962;2023-06-26T05:07:53;9.50;;;4.50;;
49978;SDS011;35869;50.990;6.962;2023-06-26T05:12:54;6.13;;;3.70;;
49978;SDS011;35869;50.990;6.962;2023-06-26T05:17:55;4.70;;;4.15;;
49978;SDS011;35869;50.990;6.962;2023-06-26T05:22:55;5.78;;;3.70;;
49978;SDS011;35869;50.990;6.962;2023-06-26T05:27:56;7.63;;;3.70;;
49978;SDS011;35869;50.990;6.962;2023-06-26T05:32:58;5.82;;;3.88;;
49978;SDS011;35869;50.990;6.962;2023-06-26T05:38:00;8.35;;;3.92;;
49978;SDS011;35869;50.990;6.962;2023-06-26T05:43:01;7.15;;;4.10;;
49978;SDS011;35869;50.990;6.962;2023-06-26T05:48:01;4.88;;;4.38;;
49978;SDS011;35869;50.990;6.962;2023-06-26T05:53:02;5.73;;;4.30;;
49978;SDS011;35869;50.990;6.962;2023-06-26T05:58:02;5.75;;;4.32;;
49978;SDS011;35869;50.990;6.962;2023-06-26T06:03:03;7.97;;;3.72;;
49978;SDS011;35869;50.990;6.962;2023-06-26T06:08:03;7.20;;;4.78;;
49978;SDS011;35869;50.990;6.962;2023-06-26T06:13:03;5.40;;;3.55;;
49978;SDS011;35869;50.990;6.962;2023-06-26T06:18:04;7.20;;;4.13;;
49978;SDS011;35869;50.990;6.962;2023-06-26T06:23:04;5.90;;;4.30;;
49978;SDS011;35869;50.990;6.962;2023-06-26T06:28:04;7.00;;;4.90;;
49978;SDS011;35869;50.990;6.962;2023-06-26T06:33:05;7.80;;;3.97;;
49978;SDS011;35869;50.990;6.962;2023-06-26T06:38:05;6.03;;;3.90;;
49978;SDS011;35869;50.990;6.962;2023-06-26T06:43:05;6.32;;;3.92;;
49978;SDS011;35869;50.990;6.962;2023-06-26T06:48:05;5.40;;;3.70;;
49978;SDS011;35869;50.990;6.962;2023-06-26T06:53:06;7.28;;;3.80;;
49978;SDS011;35869;50.990;6.962;2023-06-26T06:58:07;6.72;;;4.03;;
49978;SDS011;35869;50.990;6.962;2023-06-26T07:03:07;8.55;;;4.60;;
49978;SDS011;35869;50.990;6.962;2023-06-26T07:08:08;4.15;;;3.70;;
49978;SDS011;35869;50.990;6.962;2023-06-26T07:13:08;6.30;;;3.80;;
49978;SDS011;35869;50.990;6.962;2023-06-26T07:18:08;6.95;;;4.60;;
49978;SDS011;35869;50.990;6.962;2023-06-26T07:23:09;6.88;;;6.07;;
49978;SDS011;35869;50.990;6.962;2023-06-26T07:28:09;10.38;;;7.22;;
49978;SDS011;35869;50.990;6.962;2023-06-26T07:33:13;8.13;;;5.03;;
49978;SDS011;35869;50.990;6.962;2023-06-26T07:38:13;14.35;;;4.35;;
49978;SDS011;35869;50.990;6.962;2023-06-26T07:43:13;6.90;;;5.53;;
49978;SDS011;35869;50.990;6.962;2023-06-26T07:48:13;9.80;;;5.70;;
49978;SDS011;35869;50.990;6.962;2023-06-26T07:53:13;8.18;;;5.18;;
49978;SDS011;35869;50.990;6.962;2023-06-26T07:58:14;6.55;;;4.10;;
49978;SDS011;35869;50.990;6.962;2023-06-26T08:03:14;7.40;;;4.38;;
49978;SDS011;35869;50.990;6.962;2023-06-26T08:08:14;9.73;;;4.20;;
49978;SDS011;35869;50.990;6.962;2023-06-26T08:13:14;8.43;;;4.22;;
49978;SDS011;35869;50.990;6.962;2023-06-26T08:18:14;9.15;;;3.78;;
49978;SDS011;35869;50.990;6.962;2023-06-26T08:23:15;8.00;;;4.50;;
49978;SDS011;35869;50.990;6.962;2023-06-26T08:28:15;7.63;;;4.35;;
49978;SDS011;35869;50.990;6.962;2023-06-26T08:33:15;8.02;;;4.85;;
49978;SDS011;35869;50.990;6.962;2023-06-26T08:38:15;9.13;;;5.05;;
49978;SDS011;35869;50.990;6.962;2023-06-26T08:43:15;5.70;;;4.28;;
49978;SDS011;35869;50.990;6.962;2023-06-26T08:48:16;8.32;;;4.78;;
49978;SDS011;35869;50.990;6.962;2023-06-26T08:53:20;6.97;;;4.65;;
49978;SDS011;35869;50.990;6.962;2023-06-26T08:58:28;6.90;;;4.07;;
49978;SDS011;35869;50.990;6.962;2023-06-26T09:03:30;7.65;;;4.57;;
49978;SDS011;35869;50.990;6.962;2023-06-26T09:08:31;7.00;;;3.90;;
49978;SDS011;35869;50.990;6.962;2023-06-26T09:13:31;6.63;;;4.07;;
49978;SDS011;35869;50.990;6.962;2023-06-26T09:18:32;7.72;;;3.83;;
49978;SDS011;35869;50.990;6.962;2023-06-26T09:23:33;8.65;;;3.75;;
49978;SDS011;35869;50.990;6.962;2023-06-26T09:28:34;6.38;;;3.70;;
49978;SDS011;35869;50.990;6.962;2023-06-26T09:33:36;6.88;;;4.13;;
49978;SDS011;35869;50.990;6.962;2023-06-26T09:38:37;11.02;;;4.07;;
49978;SDS011;35869;50.990;6.962;2023-06-26T09:43:49;10.15;;;4.07;;
49978;SDS011;35869;50.990;6.962;2023-06-26T09:48:57;7.60;;;4.55;;
49978;SDS011;35869;50.990;6.962;2023-06-26T09:53:59;10.38;;;4.07;;
49978;SDS011;35869;50.990;6.962;2023-06-26T09:59:00;7.63;;;3.67;;
49978;SDS011;35869;50.990;6.962;2023-06-26T10:04:02;6.90;;;3.90;;
49978;SDS011;35869;50.990;6.962;2023-06-26T10:09:03;5.03;;;3.63;;
49978;SDS011;35869;50.990;6.962;2023-06-26T10:14:03;7.43;;;3.55;;
49978;SDS011;35869;50.990;6.962;2023-06-26T10:19:06;4.07;;;3.25;;
49978;SDS011;35869;50.990;6.962;2023-06-26T10:24:09;8.27;;;3.55;;
49978;SDS011;35869;50.990;6.962;2023-06-26T10:29:12;6.28;;;3.10;;
49978;SDS011;35869;50.990;6.962;2023-06-26T10:34:15;5.20;;;3.00;;
49978;SDS011;35869;50.990;6.962;2023-06-26T10:39:16;3.13;;;2.22;;
49978;SDS011;35869;50.990;6.962;2023-06-26T10:44:17;5.63;;;3.33;;
49978;SDS011;35869;50.990;6.962;2023-06-26T10:49:17;4.93;;;2.87;;
49978;SDS011;35869;50.990;6.962;2023-06-26T10:54:18;5.25;;;2.78;;
49978;SDS011;35869;50.990;6.962;2023-06-26T10:59:20;5.40;;;2.75;;
49978;SDS011;35869;50.990;6.962;2023-06-26T11:09:37;3.60;;;2.00;;
49978;SDS011;35869;50.990;6.962;2023-06-26T11:14:56;5.75;;;2.42;;
49978;SDS011;35869;50.990;6.962;2023-06-26T11:19:57;9.77;;;2.53;;
49978;SDS011;35869;50.990;6.962;2023-06-26T11:24:59;4.25;;;2.67;;
49978;SDS011;35869;50.990;6.962;2023-06-26T11:29:59;3.95;;;2.08;;
49978;SDS011;35869;50.990;6.962;2023-06-26T11:40:00;5.93;;;1.87;;
49978;SDS011;35869;50.990;6.962;2023-06-26T11:45:16;5.07;;;2.25;;
49978;SDS011;35869;50.990;6.962;2023-06-26T11:50:16;4.97;;;2.20;;
49978;SDS011;35869;50.990;6.962;2023-06-26T11:55:16;4.73;;;2.00;;
49978;SDS011;35869;50.990;6.962;2023-06-26T12:05:17;4.77;;;1.90;;
49978;SDS011;35869;50.990;6.962;2023-06-26T12:10:17;6.70;;;2.20;;
49978;SDS011;35869;50.990;6.962;2023-06-26T12:15:20;5.88;;;2.13;;
49978;SDS011;35869;50.990;6.962;2023-06-26T12:20:21;3.10;;;1.60;;
49978;SDS011;35869;50.990;6.962;2023-06-26T12:25:23;3.20;;;2.03;;
49978;SDS011;35869;50.990;6.962;2023-06-26T12:30:23;5.45;;;2.08;;
49978;SDS011;35869;50.990;6.962;2023-06-26T12:40:24;4.53;;;2.08;;
49978;SDS011;35869;50.990;6.962;2023-06-26T12:50:25;8.67;;;1.73;;
49978;SDS011;35869;50.990;6.962;2023-06-26T13:00:25;3.33;;;1.13;;
49978;SDS011;35869;50.990;6.962;2023-06-26T13:10:25;5.17;;;1.23;;
49978;SDS011;35869;50.990;6.962;2023-06-26T13:20:26;3.17;;;1.00;;
49978;SDS011;35869;50.990;6.962;2023-06-26T13:25:26;3.88;;;1.35;;
49978;SDS011;35869;50.990;6.962;2023-06-26T13:35:26;9.60;;;1.63;;
49978;SDS011;35869;50.990;6.962;2023-06-26T13:45:27;4.70;;;1.90;;
49978;SDS011;35869;50.990;6.962;2023-06-26T13:55:29;5.18;;;1.23;;
